createdAt,value
2023-03-02T00:00:16.531Z,102386.50
2023-03-02T00:02:45.939Z,102384.77
2023-03-02T00:05:14.837Z,102387.54
2023-03-02T00:11:15.801Z,102389.48
2023-03-02T00:13:46.518Z,102386.66
2023-03-02T00:16:15.691Z,102391.00
2023-03-02T00:18:44.398Z,102391.20
2023-03-02T00:21:12.814Z,102389.14
2023-03-02T00:23:41.500Z,102385.52
2023-03-02T00:26:12.507Z,102384.42
2023-03-02T00:28:41.197Z,102382.70
2023-03-02T00:31:09.637Z,102379.59
2023-03-02T00:33:41.437Z,102381.09
2023-03-02T00:36:17.795Z,102375.54
2023-03-02T00:38:47.398Z,102378.45
2023-03-02T00:41:16.923Z,102378.77
2023-03-02T00:43:45.386Z,102376.36
2023-03-02T00:46:15.750Z,102376.24
2023-03-02T00:48:49.422Z,102376.62
2023-03-02T00:51:19.336Z,102377.84
2023-03-02T00:53:50.063Z,102377.98
2023-03-02T00:56:18.333Z,102380.35
2023-03-02T00:58:48.040Z,102383.53
2023-03-02T01:01:18.703Z,102388.08
2023-03-02T01:03:49.721Z,102389.73
2023-03-02T01:06:19.742Z,102385.48
2023-03-02T01:08:49.440Z,102385.90
2023-03-02T01:11:20.182Z,102380.90
2023-03-02T01:13:49.170Z,102384.15
2023-03-02T01:16:18.139Z,102383.14
2023-03-02T01:18:51.560Z,102380.86
2023-03-02T01:21:20.141Z,102381.63
2023-03-02T01:23:48.623Z,102379.36
2023-03-02T01:26:17.127Z,102381.96
2023-03-02T01:28:45.480Z,102381.13
2023-03-02T01:31:15.720Z,102381.82
2023-03-02T01:33:44.387Z,102387.84
2023-03-02T01:36:13.381Z,102391.20
2023-03-02T01:38:41.804Z,102390.81
2023-03-02T01:41:10.749Z,102385.63
2023-03-02T01:43:40.358Z,102385.10
2023-03-02T01:46:12.693Z,102383.58
2023-03-02T01:48:54.012Z,102387.08
2023-03-02T01:51:35.919Z,102386.04
2023-03-02T01:54:06.513Z,102387.90
2023-03-02T01:56:36.812Z,102388.73
2023-03-02T01:59:14.458Z,102386.63
2023-03-02T02:01:45.593Z,102387.30
2023-03-02T02:04:21.854Z,102386.27
2023-03-02T02:06:56.075Z,102389.55
2023-03-02T02:09:24.655Z,102384.55
2023-03-02T02:11:53.181Z,102384.52
2023-03-02T02:14:22.356Z,102385.92
2023-03-02T02:16:51.278Z,102388.64
2023-03-02T02:20:09.568Z,102391.72
2023-03-02T02:22:50.258Z,102392.87
2023-03-02T02:25:44.831Z,102398.00
2023-03-02T02:28:19.354Z,102398.21
2023-03-02T02:30:49.679Z,102397.67
2023-03-02T02:33:20.202Z,102398.71
2023-03-02T02:35:48.518Z,102401.14
2023-03-02T02:38:19.005Z,102400.81
2023-03-02T02:40:57.730Z,102402.38
2023-03-02T02:43:31.330Z,102405.54
2023-03-02T02:46:00.657Z,102406.08
2023-03-02T02:48:31.366Z,102405.83
2023-03-02T02:51:00.854Z,102405.63
2023-03-02T02:53:38.357Z,102409.73
2023-03-02T02:56:07.680Z,102417.07
2023-03-02T02:58:42.383Z,102413.16
2023-03-02T03:01:26.335Z,102407.52
2023-03-02T03:04:01.981Z,102413.77
2023-03-02T03:06:42.795Z,102420.84
2023-03-02T03:09:13.070Z,102422.16
2023-03-02T03:11:53.936Z,102427.50
2023-03-02T03:14:37.366Z,102426.32
2023-03-02T03:17:12.307Z,102423.45
2023-03-02T03:19:46.824Z,102423.33
2023-03-02T03:22:16.117Z,102423.27
2023-03-02T03:24:45.725Z,102426.72
2023-03-02T03:27:15.744Z,102422.08
2023-03-02T03:29:48.419Z,102421.02
2023-03-02T03:32:19.602Z,102418.98
2023-03-02T03:34:51.828Z,102419.60
2023-03-02T03:37:24.404Z,102421.19
2023-03-02T03:39:53.205Z,102423.69
2023-03-02T03:42:23.003Z,102425.41
2023-03-02T03:44:51.694Z,102431.92
2023-03-02T03:47:21.199Z,102429.45
2023-03-02T03:49:51.106Z,102423.38
2023-03-02T03:52:30.823Z,102419.77
2023-03-02T03:55:12.954Z,102422.36
2023-03-02T03:57:42.657Z,102420.45
2023-03-02T04:00:15.196Z,102419.96
2023-03-02T04:02:47.637Z,102420.45
2023-03-02T04:05:17.234Z,102418.80
2023-03-02T04:07:46.309Z,102416.60
2023-03-02T04:10:16.588Z,102417.65
2023-03-02T04:12:46.343Z,102415.25
2023-03-02T04:15:16.369Z,102417.90
2023-03-02T04:17:46.783Z,102417.84
2023-03-02T04:20:18.337Z,102421.61
2023-03-02T04:22:49.989Z,102417.80
2023-03-02T04:25:21.440Z,102416.58
2023-03-02T04:27:52.379Z,102417.90
2023-03-02T04:30:23.863Z,102422.69
2023-03-02T04:32:53.446Z,102422.95
2023-03-02T04:35:22.556Z,102423.28
2023-03-02T04:37:51.433Z,102418.48
2023-03-02T04:40:20.158Z,102420.91
2023-03-02T04:42:50.438Z,102422.26
2023-03-02T04:45:19.055Z,102420.67
2023-03-02T04:47:47.858Z,102414.45
2023-03-02T04:50:16.204Z,102413.23
2023-03-02T04:52:53.891Z,102415.58
2023-03-02T04:55:24.119Z,102421.02
2023-03-02T04:57:52.391Z,102421.01
2023-03-02T05:00:21.480Z,102425.34
2023-03-02T05:02:49.766Z,102424.86
2023-03-02T05:05:21.499Z,102424.91
2023-03-02T05:07:50.924Z,102425.33
2023-03-02T05:10:20.826Z,102426.64
2023-03-02T05:12:58.163Z,102429.38
2023-03-02T05:15:32.122Z,102427.95
2023-03-02T05:18:01.667Z,102430.76
2023-03-02T05:20:31.742Z,102429.63
2023-03-02T05:23:05.382Z,102435.43
2023-03-02T05:25:38.026Z,102438.02
2023-03-02T05:28:07.124Z,102440.71
2023-03-02T05:30:38.059Z,102445.91
2023-03-02T05:33:06.745Z,102448.57
2023-03-02T05:35:35.508Z,102452.47
2023-03-02T05:38:04.124Z,102453.35
2023-03-02T05:40:33.924Z,102457.34
2023-03-02T05:43:02.203Z,102461.37
2023-03-02T05:45:37.848Z,102459.71
2023-03-02T05:48:07.053Z,102464.80
2023-03-02T05:50:35.530Z,102469.03
2023-03-02T05:53:04.114Z,102471.39
2023-03-02T05:55:37.221Z,102473.60
2023-03-02T05:58:12.124Z,102471.70
2023-03-02T06:00:42.040Z,102472.14
2023-03-02T06:03:10.577Z,102470.50
2023-03-02T06:05:39.410Z,102474.31
2023-03-02T06:08:11.888Z,102476.77
2023-03-02T06:10:43.439Z,102479.05
2023-03-02T06:13:11.712Z,102477.80
2023-03-02T06:15:44.309Z,102479.76
2023-03-02T06:18:14.118Z,102479.94
2023-03-02T06:20:42.580Z,102480.34
2023-03-02T06:23:12.186Z,102484.68
2023-03-02T06:25:43.950Z,102484.30
2023-03-02T06:28:12.851Z,102486.77
2023-03-02T06:30:42.037Z,102488.02
2023-03-02T06:33:12.868Z,102492.89
2023-03-02T06:35:43.445Z,102497.96
2023-03-02T06:38:11.790Z,102500.33
2023-03-02T06:40:40.489Z,102496.62
2023-03-02T06:43:08.837Z,102491.91
2023-03-02T06:45:38.228Z,102491.11
2023-03-02T06:48:07.436Z,102495.02
2023-03-02T06:50:36.752Z,102488.40
2023-03-02T06:53:05.729Z,102487.89
2023-03-02T06:55:34.313Z,102488.73
2023-03-02T06:58:03.108Z,102487.11
2023-03-02T07:00:31.684Z,102484.39
2023-03-02T07:03:02.314Z,102486.02
2023-03-02T07:05:32.532Z,102487.73
2023-03-02T07:08:01.219Z,102490.11
2023-03-02T07:10:30.032Z,102491.35
2023-03-02T07:12:58.483Z,102492.31
2023-03-02T07:15:27.377Z,102493.10
2023-03-02T07:17:55.755Z,102494.09
2023-03-02T07:20:24.233Z,102494.21
2023-03-02T07:22:53.228Z,102495.23
2023-03-02T07:25:21.783Z,102498.89
2023-03-02T07:27:50.202Z,102494.64
2023-03-02T07:30:21.550Z,102492.20
2023-03-02T07:32:49.834Z,102494.66
2023-03-02T07:35:19.254Z,102492.08
2023-03-02T07:37:47.714Z,102496.13
2023-03-02T07:40:16.090Z,102494.61
2023-03-02T07:42:44.655Z,102488.10
2023-03-02T07:45:17.233Z,102485.23
2023-03-02T07:47:45.715Z,102485.75
2023-03-02T07:50:13.994Z,102487.15
2023-03-02T07:52:43.183Z,102488.52
2023-03-02T07:55:11.560Z,102486.45
2023-03-02T07:57:40.254Z,102486.13
2023-03-02T08:00:09.553Z,102490.13
2023-03-02T08:02:41.853Z,102493.58
2023-03-02T08:05:11.224Z,102495.15
2023-03-02T08:07:40.838Z,102497.92
2023-03-02T08:10:11.666Z,102499.84
2023-03-02T08:12:40.149Z,102499.01
2023-03-02T08:15:09.755Z,102500.42
2023-03-02T08:17:38.745Z,102502.37
2023-03-02T08:20:09.695Z,102499.33
2023-03-02T08:22:38.308Z,102495.26
2023-03-02T08:25:08.083Z,102498.06
2023-03-02T08:27:37.044Z,102496.54
2023-03-02T08:30:06.581Z,102498.65
2023-03-02T08:32:35.018Z,102500.60
2023-03-02T08:35:04.462Z,102497.21
2023-03-02T08:37:32.735Z,102500.76
2023-03-02T08:40:01.349Z,102499.98
2023-03-02T08:42:29.927Z,102505.08
2023-03-02T08:44:59.196Z,102504.75
2023-03-02T08:47:29.826Z,102506.90
2023-03-02T08:49:58.204Z,102510.45
2023-03-02T08:52:26.577Z,102515.27
2023-03-02T08:54:55.220Z,102510.53
2023-03-02T08:57:23.748Z,102506.48
2023-03-02T08:59:52.852Z,102509.16
2023-03-02T09:02:21.122Z,102511.30
2023-03-02T09:04:50.217Z,102510.85
2023-03-02T09:07:19.508Z,102507.13
2023-03-02T09:09:49.114Z,102506.67
2023-03-02T09:12:18.382Z,102507.77
2023-03-02T09:14:46.793Z,102508.66
2023-03-02T09:17:15.991Z,102506.30
2023-03-02T09:19:44.879Z,102503.21
2023-03-02T09:22:13.580Z,102502.52
2023-03-02T09:24:42.045Z,102502.85
2023-03-02T09:27:10.529Z,102501.13
2023-03-02T09:29:39.011Z,102496.48
2023-03-02T09:32:08.118Z,102494.64
2023-03-02T09:34:36.796Z,102487.59
2023-03-02T09:37:05.083Z,102487.14
2023-03-02T09:39:33.724Z,102488.95
2023-03-02T09:42:10.749Z,102489.71
2023-03-02T09:45:08.604Z,102487.54
2023-03-02T09:47:39.957Z,102485.52
2023-03-02T09:50:27.686Z,102480.70
2023-03-02T09:53:33.536Z,102478.55
2023-03-02T09:56:03.391Z,102476.88
2023-03-02T09:58:36.256Z,102474.86
2023-03-02T10:01:09.221Z,102472.48
2023-03-02T10:04:02.509Z,102470.44
2023-03-02T10:06:31.790Z,102470.45
2023-03-02T10:09:00.462Z,102471.17
2023-03-02T10:11:40.229Z,102464.58
2023-03-02T10:14:15.667Z,102459.20
2023-03-02T10:16:52.938Z,102457.00
2023-03-02T10:19:44.865Z,102455.81
2023-03-02T10:22:29.124Z,102457.05
2023-03-02T10:24:59.142Z,102451.16
2023-03-02T10:27:51.591Z,102449.42
2023-03-02T10:30:31.424Z,102446.83
2023-03-02T10:33:19.472Z,102447.02
2023-03-02T10:35:52.220Z,102442.67
2023-03-02T10:38:23.607Z,102444.60
2023-03-02T10:41:02.437Z,102440.62
2023-03-02T10:43:34.896Z,102434.75
2023-03-02T10:46:05.474Z,102432.33
2023-03-02T10:48:51.000Z,102434.26
2023-03-02T10:51:29.434Z,102429.40
2023-03-02T10:54:11.616Z,102431.33
2023-03-02T10:56:43.173Z,102427.52
2023-03-02T10:59:27.209Z,102425.61
2023-03-02T11:02:25.591Z,102424.92
2023-03-02T11:04:57.593Z,102422.66
2023-03-02T11:07:28.183Z,102421.80
2023-03-02T11:10:06.820Z,102418.15
2023-03-02T11:12:36.717Z,102421.28
2023-03-02T11:15:46.005Z,102420.95
2023-03-02T11:18:22.424Z,102417.48
2023-03-02T11:20:52.849Z,102418.00
2023-03-02T11:23:24.971Z,102415.75
2023-03-02T11:25:58.894Z,102412.98
2023-03-02T11:28:53.584Z,102411.40
2023-03-02T11:31:47.362Z,102403.93
2023-03-02T11:34:35.020Z,102401.84
2023-03-02T11:37:13.739Z,102397.85
2023-03-02T11:39:55.119Z,102390.02
2023-03-02T11:42:30.856Z,102386.57
2023-03-02T11:45:27.522Z,102380.13
2023-03-02T11:48:33.270Z,102380.14
2023-03-02T11:51:04.840Z,102375.61
2023-03-02T11:53:37.377Z,102373.52
2023-03-02T11:56:05.672Z,102375.07
2023-03-02T11:58:34.462Z,102372.27
2023-03-02T12:01:03.146Z,102374.54
2023-03-02T12:03:31.957Z,102373.84
2023-03-02T12:06:01.438Z,102371.92
2023-03-02T12:08:44.692Z,102371.05
2023-03-02T12:11:19.284Z,102367.20
2023-03-02T12:13:50.235Z,102368.05
2023-03-02T12:16:23.559Z,102368.05
2023-03-02T12:18:52.616Z,102367.51
2023-03-02T12:21:24.270Z,102366.29
2023-03-02T12:23:52.760Z,102365.24
2023-03-02T12:26:21.139Z,102360.73
2023-03-02T12:28:58.866Z,102359.34
2023-03-02T12:31:28.099Z,102355.54
2023-03-02T12:33:56.915Z,102351.55
2023-03-02T12:36:40.146Z,102348.59
2023-03-02T12:39:30.951Z,102350.50
2023-03-02T12:42:27.688Z,102348.26
2023-03-02T12:45:04.798Z,102350.86
2023-03-02T12:47:33.403Z,102346.35
2023-03-02T12:50:05.006Z,102346.88
2023-03-02T12:52:35.736Z,102346.20
2023-03-02T12:55:09.753Z,102347.76
2023-03-02T12:58:08.865Z,102344.98
2023-03-02T13:00:37.327Z,102344.46
2023-03-02T13:03:10.010Z,102343.77
2023-03-02T13:05:38.318Z,102348.11
2023-03-02T13:08:09.331Z,102340.48
2023-03-02T13:10:42.661Z,102337.85
2023-03-02T13:13:38.987Z,102340.83
2023-03-02T13:16:18.134Z,102338.21
2023-03-02T13:18:47.376Z,102334.21
2023-03-02T13:21:15.754Z,102334.90
2023-03-02T13:23:48.849Z,102335.42
2023-03-02T13:26:33.339Z,102331.24
2023-03-02T13:29:20.928Z,102332.63
2023-03-02T13:31:49.986Z,102329.86
2023-03-02T13:34:28.833Z,102327.61
2023-03-02T13:36:57.406Z,102325.17
2023-03-02T13:39:29.118Z,102325.85
2023-03-02T13:41:58.484Z,102321.69
2023-03-02T13:44:29.435Z,102321.68
2023-03-02T13:46:58.525Z,102323.41
2023-03-02T13:49:35.447Z,102321.85
2023-03-02T13:52:07.077Z,102319.06
2023-03-02T13:54:37.110Z,102315.59
2023-03-02T13:57:05.954Z,102315.42
2023-03-02T13:59:37.306Z,102314.55
2023-03-02T14:02:19.110Z,102311.58
2023-03-02T14:04:47.494Z,102310.55
2023-03-02T14:07:17.899Z,102306.36
2023-03-02T14:09:46.179Z,102302.89
2023-03-02T14:12:27.456Z,102301.67
2023-03-02T14:14:57.629Z,102298.71
2023-03-02T14:17:26.048Z,102300.63
2023-03-02T14:19:56.800Z,102297.66
2023-03-02T14:22:26.401Z,102294.17
2023-03-02T14:24:55.912Z,102293.98
2023-03-02T14:27:26.135Z,102293.13
2023-03-02T14:29:54.802Z,102292.25
2023-03-02T14:32:23.446Z,102288.94
2023-03-02T14:34:52.378Z,102287.89
2023-03-02T14:37:22.496Z,102288.56
2023-03-02T14:39:54.111Z,102286.29
2023-03-02T14:42:23.663Z,102287.34
2023-03-02T14:44:52.242Z,102287.13
2023-03-02T14:47:21.923Z,102286.94
2023-03-02T14:49:50.875Z,102285.69
2023-03-02T14:52:21.780Z,102281.84
2023-03-02T14:54:54.661Z,102284.24
2023-03-02T14:57:27.955Z,102280.05
2023-03-02T15:00:00.113Z,102281.77
2023-03-02T15:02:28.798Z,102282.27
2023-03-02T15:05:13.071Z,102278.08
2023-03-02T15:07:44.203Z,102279.27
2023-03-02T15:10:19.855Z,102278.73
2023-03-02T15:12:48.235Z,102272.63
2023-03-02T15:15:16.846Z,102270.87
2023-03-02T15:17:45.811Z,102270.48
2023-03-02T15:20:17.398Z,102269.75
2023-03-02T15:22:47.380Z,102269.88
2023-03-02T15:25:17.418Z,102272.11
2023-03-02T15:27:46.999Z,102271.20
2023-03-02T15:30:15.789Z,102273.92
2023-03-02T15:32:44.168Z,102272.50
2023-03-02T15:35:12.847Z,102267.94
2023-03-02T15:37:45.281Z,102268.76
2023-03-02T15:40:13.903Z,102268.20
2023-03-02T15:42:42.183Z,102269.35
2023-03-02T15:45:11.391Z,102268.08
2023-03-02T15:47:39.755Z,102272.36
2023-03-02T15:50:09.069Z,102278.37
2023-03-02T15:52:37.635Z,102276.39
2023-03-02T15:55:06.324Z,102278.92
2023-03-02T15:57:39.521Z,102277.70
2023-03-02T16:00:13.682Z,102279.71
2023-03-02T16:02:43.459Z,102280.34
2023-03-02T16:05:12.735Z,102281.84
2023-03-02T16:07:41.124Z,102283.02
2023-03-02T16:10:15.348Z,102280.55
2023-03-02T16:12:43.827Z,102280.48
2023-03-02T16:15:14.852Z,102285.45
2023-03-02T16:17:47.940Z,102287.83
2023-03-02T16:20:16.853Z,102292.27
2023-03-02T16:22:45.828Z,102290.66
2023-03-02T16:25:14.213Z,102293.55
2023-03-02T16:27:47.289Z,102289.04
2023-03-02T16:30:20.761Z,102292.30
2023-03-02T16:32:51.279Z,102298.16
2023-03-02T16:35:19.817Z,102299.16
2023-03-02T16:37:48.565Z,102300.02
2023-03-02T16:40:17.499Z,102298.42
2023-03-02T16:42:47.492Z,102299.60
2023-03-02T16:45:16.178Z,102299.22
2023-03-02T16:47:44.967Z,102297.29
2023-03-02T16:50:14.062Z,102296.75
2023-03-02T16:52:42.440Z,102295.34
2023-03-02T16:55:13.487Z,102297.59
2023-03-02T16:57:42.457Z,102294.84
2023-03-02T17:00:12.854Z,102295.20
2023-03-02T17:02:42.207Z,102300.59
2023-03-02T17:05:11.602Z,102298.38
2023-03-02T17:07:41.220Z,102296.11
2023-03-02T17:10:12.306Z,102297.34
2023-03-02T17:12:41.925Z,102295.61
2023-03-02T17:15:13.514Z,102299.06
2023-03-02T17:17:42.524Z,102299.20
2023-03-02T17:20:13.275Z,102299.34
2023-03-02T17:22:41.621Z,102298.96
2023-03-02T17:25:11.538Z,102298.78
2023-03-02T17:27:40.722Z,102303.08
2023-03-02T17:30:13.724Z,102300.27
2023-03-02T17:32:42.458Z,102299.90
2023-03-02T17:35:11.592Z,102297.65
2023-03-02T17:37:42.046Z,102297.66
2023-03-02T17:40:18.382Z,102294.05
2023-03-02T17:42:46.864Z,102296.49
2023-03-02T17:45:19.845Z,102295.30
2023-03-02T17:47:50.275Z,102292.57
2023-03-02T17:50:18.759Z,102289.13
2023-03-02T17:52:47.743Z,102286.85
2023-03-02T17:55:17.055Z,102289.77
2023-03-02T17:57:45.728Z,102290.10
2023-03-02T18:00:21.753Z,102287.64
2023-03-02T18:02:52.706Z,102285.55
2023-03-02T18:05:22.537Z,102289.16
2023-03-02T18:07:52.755Z,102290.20
2023-03-02T18:10:22.470Z,102288.48
2023-03-02T18:12:52.761Z,102289.70
2023-03-02T18:15:23.681Z,102290.73
2023-03-02T18:17:52.312Z,102288.47
2023-03-02T18:20:20.896Z,102285.52
2023-03-02T18:22:50.503Z,102283.08
2023-03-02T18:25:23.191Z,102284.09
2023-03-02T18:27:52.429Z,102283.71
2023-03-02T18:30:21.470Z,102282.61
2023-03-02T18:32:49.722Z,102279.30
2023-03-02T18:35:19.670Z,102278.59
2023-03-02T18:37:48.072Z,102277.00
2023-03-02T18:40:19.498Z,102280.14
2023-03-02T18:42:48.685Z,102277.70
2023-03-02T18:45:28.655Z,102277.50
2023-03-02T18:47:58.344Z,102277.11
2023-03-02T18:50:28.158Z,102278.44
2023-03-02T18:52:56.736Z,102277.16
2023-03-02T18:55:25.421Z,102278.12
2023-03-02T18:57:55.246Z,102282.33
2023-03-02T19:00:27.340Z,102280.86
2023-03-02T19:02:58.443Z,102281.83
2023-03-02T19:05:27.248Z,102282.11
2023-03-02T19:08:00.627Z,102282.40
2023-03-02T19:10:29.824Z,102284.80
2023-03-02T19:12:58.307Z,102284.44
2023-03-02T19:15:26.687Z,102286.12
2023-03-02T19:17:55.275Z,102286.42
2023-03-02T19:20:25.081Z,102285.67
2023-03-02T19:22:55.200Z,102288.52
2023-03-02T19:25:24.502Z,102289.14
2023-03-02T19:27:52.776Z,102288.55
2023-03-02T19:30:26.697Z,102286.59
2023-03-02T19:32:55.183Z,102288.63
2023-03-02T19:35:25.410Z,102284.81
2023-03-02T19:37:53.758Z,102284.12
2023-03-02T19:40:24.706Z,102282.68
2023-03-02T19:42:53.386Z,102283.48
2023-03-02T19:45:24.071Z,102283.63
2023-03-02T19:47:59.155Z,102279.73
2023-03-02T19:50:47.397Z,102279.84
2023-03-02T19:53:17.300Z,102275.46
2023-03-02T19:55:45.688Z,102272.85
2023-03-02T19:58:19.903Z,102268.55
2023-03-02T20:00:49.231Z,102266.82
2023-03-02T20:03:17.697Z,102267.88
2023-03-02T20:05:47.079Z,102261.11
2023-03-02T20:08:17.204Z,102261.08
2023-03-02T20:10:50.901Z,102262.23
2023-03-02T20:13:19.789Z,102263.54
2023-03-02T20:15:48.384Z,102260.20
2023-03-02T20:18:19.579Z,102256.54
2023-03-02T20:20:48.700Z,102260.34
2023-03-02T20:23:17.922Z,102257.92
2023-03-02T20:25:48.306Z,102252.23
2023-03-02T20:28:22.788Z,102252.90
2023-03-02T20:30:56.206Z,102250.42
2023-03-02T20:33:30.992Z,102248.63
2023-03-02T20:36:02.431Z,102250.12
2023-03-02T20:38:39.618Z,102249.73
2023-03-02T20:41:08.097Z,102247.09
2023-03-02T20:43:39.650Z,102248.77
2023-03-02T20:46:08.482Z,102245.81
2023-03-02T20:48:37.351Z,102246.32
2023-03-02T20:51:06.012Z,102248.92
2023-03-02T20:53:37.256Z,102249.92
2023-03-02T20:56:06.451Z,102246.62
2023-03-02T20:58:35.856Z,102245.54
2023-03-02T21:01:04.476Z,102242.89
2023-03-02T21:03:33.736Z,102240.59
2023-03-02T21:06:03.447Z,102239.72
2023-03-02T21:08:39.229Z,102238.86
2023-03-02T21:11:17.072Z,102233.02
2023-03-02T21:13:46.200Z,102226.30
2023-03-02T21:16:18.663Z,102230.60
2023-03-02T21:18:50.423Z,102223.98
2023-03-02T21:21:20.205Z,102219.45
2023-03-02T21:23:51.485Z,102218.04
2023-03-02T21:26:20.784Z,102218.33
2023-03-02T21:28:49.160Z,102220.17
2023-03-02T21:31:18.469Z,102219.67
2023-03-02T21:33:47.152Z,102217.27
2023-03-02T21:36:22.501Z,102217.63
2023-03-02T21:38:51.579Z,102212.14
2023-03-02T21:41:19.857Z,102208.34
2023-03-02T21:43:49.372Z,102210.73
2023-03-02T21:46:20.247Z,102213.45
2023-03-02T21:48:49.214Z,102212.20
2023-03-02T21:51:17.789Z,102206.84
2023-03-02T21:53:46.569Z,102207.35
2023-03-02T21:56:20.977Z,102206.16
2023-03-02T21:58:55.435Z,102202.73
2023-03-02T22:01:24.992Z,102202.40
2023-03-02T22:03:53.588Z,102206.01
2023-03-02T22:06:30.681Z,102204.92
2023-03-02T22:08:59.262Z,102205.05
2023-03-02T22:11:29.586Z,102203.42
2023-03-02T22:13:59.510Z,102203.38
2023-03-02T22:16:29.248Z,102201.98
2023-03-02T22:22:26.990Z,102203.59
2023-03-02T22:24:57.929Z,102206.63
2023-03-02T22:27:28.261Z,102202.44
2023-03-02T22:30:00.329Z,102199.46
2023-03-02T22:32:30.879Z,102197.86
2023-03-02T22:35:23.438Z,102196.95
2023-03-02T22:37:53.301Z,102195.59
2023-03-02T22:40:29.982Z,102189.73
2023-03-02T22:43:23.237Z,102191.13
2023-03-02T22:45:53.776Z,102188.15
2023-03-02T22:48:23.373Z,102185.68
2023-03-02T22:50:51.667Z,102188.21
2023-03-02T22:53:31.193Z,102186.92
2023-03-02T22:56:03.356Z,102186.19
2023-03-02T22:58:36.345Z,102188.61
2023-03-02T23:01:13.200Z,102187.40
2023-03-02T23:03:43.957Z,102182.06
2023-03-02T23:06:22.264Z,102182.36
2023-03-02T23:08:58.165Z,102178.68
2023-03-02T23:11:27.115Z,102176.68
2023-03-02T23:13:55.898Z,102174.04
2023-03-02T23:16:25.971Z,102173.31
2023-03-02T23:18:55.962Z,102172.93
2023-03-02T23:21:35.788Z,102172.59
2023-03-02T23:24:05.707Z,102169.48
2023-03-02T23:26:34.584Z,102169.47
2023-03-02T23:29:22.944Z,102164.42
2023-03-02T23:31:55.021Z,102163.18
2023-03-02T23:34:25.138Z,102160.89
2023-03-02T23:36:56.254Z,102160.46
2023-03-02T23:39:24.731Z,102156.98
2023-03-02T23:41:53.449Z,102154.89
2023-03-02T23:44:21.996Z,102152.98
2023-03-02T23:46:52.295Z,102147.64
2023-03-02T23:49:21.109Z,102144.34
2023-03-02T23:51:50.004Z,102142.58
2023-03-02T23:54:19.397Z,102132.53
2023-03-02T23:56:48.404Z,102127.30
2023-03-02T23:59:17.382Z,102125.39
